Time;durP1;ratioP1;P1;durP2;ratioP2;P2;SDS_P1;SDS_P2;PMS_P1;PMS_P2;Temp;Humidity;BMP_temperature;BMP_pressure;BME280_temperature;BME280_humidity;BME280_pressure;Samples;Min_cycle;Max_cycle;Signal;HPM_P1;HPM_P2
2022/07/25 00:00:14;;;;;;;29.70;26.67;;;22.70;1.00;;;;;;5044928;28;20945;-54
2022/07/25 00:02:40;;;;;;;30.70;27.70;;;;;;;;;;5045931;28;20497;-54
2022/07/25 00:05:07;;;;;;;33.47;30.03;;;;;;;;;;5046492;28;20854;-54
2022/07/25 00:07:33;;;;;;;39.30;35.37;;;;;;;;;;5048144;28;20579;-54
2022/07/25 00:09:59;;;;;;;30.03;27.20;;;;;;;;;;5046773;28;20488;-56
2022/07/25 00:12:25;;;;;;;26.20;23.87;;;;;;;;;;5063494;28;20445;-54
2022/07/25 00:14:50;;;;;;;29.20;26.57;;;;;;;;;;5049521;28;20486;-54
2022/07/25 00:17:16;;;;;;;32.37;28.97;;;22.60;1.00;;;;;;5047691;28;20454;-55
2022/07/25 00:19:42;;;;;;;33.73;30.23;;;22.50;1.00;;;;;;5044744;28;20592;-55
2022/07/25 00:22:08;;;;;;;34.73;31.30;;;;;;;;;;5047386;28;20206;-53
2022/07/25 00:24:34;;;;;;;38.43;34.70;;;;;;;;;;5046718;28;20294;-55
2022/07/25 00:27:00;;;;;;;41.43;37.30;;;22.40;1.00;;;;;;5049323;28;20505;-55
2022/07/25 00:29:25;;;;;;;36.30;32.73;;;;;;;;;;5043282;28;20950;-53
2022/07/25 00:31:51;;;;;;;38.70;34.97;;;22.30;1.00;;;;;;5043724;28;20232;-54
2022/07/25 00:34:17;;;;;;;40.73;36.70;;;;;;;;;;5047490;28;20596;-54
2022/07/25 00:36:43;;;;;;;43.10;38.70;;;;;;;;;;5048110;28;20661;-54
2022/07/25 00:39:09;;;;;;;49.17;44.27;;;;;;;;;;5049022;28;20450;-52
2022/07/25 00:41:35;;;;;;;48.23;43.80;;;22.30;1.00;;;;;;5047470;28;20449;-53
2022/07/25 00:44:01;;;;;;;47.23;42.37;;;;;;;;;;5047519;28;20506;-54
2022/07/25 00:46:27;;;;;;;52.40;46.90;;;22.40;1.00;;;;;;5047180;28;20859;-54
2022/07/25 00:48:53;;;;;;;47.40;42.43;;;;;;;;;;5045614;28;20541;-55
2022/07/25 00:51:19;;;;;;;49.97;45.20;;;;;;;;;;5047901;28;20195;-55
2022/07/25 00:53:45;;;;;;;49.53;44.50;;;22.30;1.00;;;;;;5044189;28;20466;-53
2022/07/25 00:56:10;;;;;;;52.20;47.13;;;22.30;1.00;;;;;;5044361;28;20450;-55
2022/07/25 00:58:36;;;;;;;54.23;48.70;;;;;;;;;;5046213;28;20616;-55
2022/07/25 01:03:54;;;;;;;52.37;47.27;;;22.20;1.00;;;;;;5038735;28;20458;-52
2022/07/25 01:06:20;;;;;;;52.03;46.87;;;;;;;;;;5047718;28;20446;-55
2022/07/25 01:08:47;;;;;;;51.23;46.33;;;22.10;1.00;;;;;;5049414;28;20203;-55
2022/07/25 01:11:13;;;;;;;50.87;45.97;;;22.00;1.00;;;;;;5050143;28;20546;-54
2022/07/25 01:13:39;;;;;;;49.97;45.17;;;;;;;;;;5051446;28;21131;-55
2022/07/25 01:16:11;;;;;;;50.30;45.50;;;;;;;;;;5051226;28;20657;-55
2022/07/25 01:18:37;;;;;;;51.17;46.27;;;;;;;;;;5050906;28;20453;-54
2022/07/25 01:21:09;;;;;;;48.80;43.90;;;21.90;1.00;;;;;;5070331;28;20786;-53
2022/07/25 01:23:35;;;;;;;50.90;45.73;;;;;;;;;;5046143;28;20831;-54
2022/07/25 01:26:01;;;;;;;48.47;43.90;;;;;;;;;;5045888;28;20975;-56
2022/07/25 01:28:27;;;;;;;51.80;46.40;;;;;;;;;;5047191;28;20454;-52
2022/07/25 01:30:53;;;;;;;44.50;40.00;;;21.70;1.00;;;;;;5045790;28;20792;-55
2022/07/25 01:33:19;;;;;;;43.50;39.20;;;21.80;1.00;;;;;;5049898;28;20496;-54
2022/07/25 01:35:46;;;;;;;44.70;40.60;;;21.80;1.00;;;;;;5048804;28;20196;-54
2022/07/25 01:38:12;;;;;;;58.13;52.73;;;21.80;1.00;;;;;;5049180;28;20508;-54
2022/07/25 01:40:38;;;;;;;53.80;48.13;;;21.70;1.00;;;;;;5045983;28;20972;-56
2022/07/25 01:43:04;;;;;;;54.37;49.03;;;21.70;1.00;;;;;;5049227;28;20455;-54
2022/07/25 01:45:30;;;;;;;53.57;48.57;;;;;;;;;;5050124;28;20568;-55
2022/07/25 01:47:56;;;;;;;58.80;53.00;;;21.70;1.00;;;;;;5050595;28;20482;-53
2022/07/25 01:50:22;;;;;;;61.77;55.77;;;;;;;;;;5048274;28;20507;-55
2022/07/25 01:52:48;;;;;;;58.67;53.00;;;;;;;;;;5048108;28;21139;-54
2022/07/25 01:55:14;;;;;;;52.37;46.97;;;21.60;1.00;;;;;;5049692;28;20512;-55
2022/07/25 01:57:40;;;;;;;51.80;46.60;;;21.60;1.00;;;;;;5050308;28;20462;-54
2022/07/25 02:00:10;;;;;;;51.00;46.10;;;21.60;1.00;;;;;;5048473;28;20208;-53
2022/07/25 02:02:35;;;;;;;51.53;46.43;;;21.70;1.00;;;;;;5046003;28;20975;-54
2022/07/25 02:05:01;;;;;;;53.97;48.87;;;;;;;;;;5044830;28;20489;-54
2022/07/25 02:07:27;;;;;;;58.13;52.27;;;21.50;1.00;;;;;;5048923;28;20192;-53
2022/07/25 02:09:53;;;;;;;62.90;56.60;;;21.50;1.00;;;;;;5048473;28;20928;-54
2022/07/25 02:12:18;;;;;;;62.80;56.40;;;;;;;;;;5050415;28;20184;-52
2022/07/25 02:14:45;;;;;;;66.03;60.00;;;;;;;;;;5046415;28;20188;-55
2022/07/25 02:17:11;;;;;;;69.57;62.97;;;;;;;;;;5046622;28;20519;-53
2022/07/25 02:19:36;;;;;;;67.67;60.53;;;;;;;;;;5048657;28;20447;-54
2022/07/25 02:22:03;;;;;;;71.93;65.10;;;21.60;1.00;;;;;;5047663;28;20455;-55
2022/07/25 02:24:29;;;;;;;67.90;61.30;;;;;;;;;;5049166;28;20818;-54
2022/07/25 02:26:55;;;;;;;70.10;63.50;;;;;;;;;;5048179;28;20756;-52
2022/07/25 02:29:21;;;;;;;72.03;64.93;;;;;;;;;;5043796;28;20792;-54
2022/07/25 02:31:46;;;;;;;72.30;64.93;;;;;;;;;;5045715;28;20552;-54
2022/07/25 02:34:13;;;;;;;74.43;66.97;;;;;;;;;;5048588;28;20879;-54
2022/07/25 02:36:38;;;;;;;73.83;66.83;;;21.20;1.00;;;;;;5046423;28;20486;-54
2022/07/25 02:39:04;;;;;;;73.20;66.00;;;21.30;1.00;;;;;;5046885;28;20971;-54
2022/07/25 02:41:30;;;;;;;71.80;64.70;;;;;;;;;;5049289;28;20212;-54
2022/07/25 02:43:56;;;;;;;71.50;64.43;;;21.30;1.00;;;;;;5048838;28;20765;-54
2022/07/25 02:46:22;;;;;;;74.37;66.87;;;;;;;;;;5049509;28;20454;-53
2022/07/25 02:48:47;;;;;;;73.77;66.73;;;21.20;1.00;;;;;;5048957;28;20188;-54
2022/07/25 02:51:13;;;;;;;75.50;68.43;;;21.20;1.00;;;;;;5048589;28;20458;-53
2022/07/25 02:53:38;;;;;;;73.07;66.00;;;21.30;1.00;;;;;;5045570;28;20184;-52
2022/07/25 02:56:10;;;;;;;72.87;65.47;;;21.30;1.00;;;;;;5050146;28;20215;-55
2022/07/25 02:58:36;;;;;;;77.57;69.90;;;;;;;;;;5045986;28;20282;-52
2022/07/25 03:01:02;;;;;;;77.67;70.10;;;;;;;;;;5047110;28;20505;-55
2022/07/25 03:03:28;;;;;;;74.13;66.67;;;;;;;;;;5048980;28;20466;-54
2022/07/25 03:05:53;;;;;;;76.23;68.93;;;21.20;1.00;;;;;;5047427;28;20932;-54
2022/07/25 03:08:19;;;;;;;77.87;70.47;;;;;;;;;;5046428;28;20462;-54
2022/07/25 03:10:45;;;;;;;76.00;69.00;;;;;;;;;;5044214;28;20183;-54
2022/07/25 03:13:11;;;;;;;76.50;69.13;;;;;;;;;;5043086;28;20569;-54
2022/07/25 03:15:37;;;;;;;81.80;73.70;;;;;;;;;;5048383;28;20946;-54
2022/07/25 03:18:03;;;;;;;75.17;67.97;;;;;;;;;;5048391;28;20553;-55
2022/07/25 03:20:29;;;;;;;74.20;66.40;;;;;;;;;;5047379;28;20466;-53
2022/07/25 03:22:55;;;;;;;79.80;71.87;;;21.10;1.00;;;;;;5048561;28;20584;-54
2022/07/25 03:25:21;;;;;;;81.97;74.13;;;;;;;;;;5046842;28;20447;-54
2022/07/25 03:27:47;;;;;;;82.47;74.43;;;;;;;;;;5047098;28;20195;-55
2022/07/25 03:30:13;;;;;;;80.40;71.67;;;;;;;;;;5045158;28;20454;-53
2022/07/25 03:32:39;;;;;;;77.30;69.77;;;21.10;1.00;;;;;;5044046;28;20528;-54
2022/07/25 03:35:06;;;;;;;82.53;74.40;;;21.00;1.00;;;;;;5044603;28;20478;-53
2022/07/25 03:37:32;;;;;;;78.33;70.83;;;;;;;;;;5046799;28;21005;-55
2022/07/25 03:39:58;;;;;;;77.33;69.63;;;;;;;;;;5047335;28;20505;-54
2022/07/25 03:42:24;;;;;;;81.33;73.20;;;21.20;1.00;;;;;;5048863;28;20541;-54
2022/07/25 03:44:49;;;;;;;81.50;73.17;;;21.30;1.00;;;;;;5047140;28;20462;-53
2022/07/25 03:47:15;;;;;;;82.93;74.87;;;;;;;;;;5046279;28;20184;-54
2022/07/25 03:49:41;;;;;;;80.87;72.97;;;;;;;;;;5046392;28;20462;-54
2022/07/25 03:52:07;;;;;;;77.70;69.87;;;21.50;1.00;;;;;;5049244;28;20446;-53
2022/07/25 03:54:33;;;;;;;84.70;76.00;;;21.20;1.00;;;;;;5045980;28;20458;-53
2022/07/25 03:56:59;;;;;;;81.93;73.93;;;;;;;;;;5045836;28;20192;-54
2022/07/25 03:59:25;;;;;;;82.60;75.00;;;;;;;;;;5048580;28;20804;-55
2022/07/25 04:01:51;;;;;;;83.20;75.03;;;;;;;;;;5045645;28;20540;-54
2022/07/25 04:04:18;;;;;;;81.43;73.53;;;21.40;1.00;;;;;;5047686;28;20481;-53
2022/07/25 04:06:44;;;;;;;82.37;73.90;;;21.60;1.00;;;;;;5044210;28;20559;-54
2022/07/25 04:09:11;;;;;;;82.27;74.47;;;21.50;1.00;;;;;;5047268;28;20465;-53
2022/07/25 04:11:37;;;;;;;81.87;74.07;;;21.50;1.00;;;;;;5047296;28;20924;-55
2022/07/25 04:14:04;;;;;;;79.57;71.80;;;21.60;1.00;;;;;;5047796;28;20454;-55
2022/07/25 04:16:30;;;;;;;84.00;75.10;;;21.60;1.00;;;;;;5047025;28;20454;-54
2022/07/25 04:18:56;;;;;;;77.40;70.00;;;21.70;1.00;;;;;;5047720;28;20467;-55
2022/07/25 04:21:22;;;;;;;79.03;70.80;;;21.60;1.00;;;;;;5047847;28;20500;-54
2022/07/25 04:23:48;;;;;;;81.10;73.07;;;21.80;1.00;;;;;;5045155;28;20293;-54
2022/07/25 04:26:14;;;;;;;78.87;70.97;;;;;;;;;;5044121;28;20537;-56
2022/07/25 04:28:40;;;;;;;79.87;71.77;;;;;;;;;;5047451;28;20212;-54
2022/07/25 04:31:09;;;;;;;78.83;70.53;;;22.00;1.00;;;;;;5052705;28;20507;-53
2022/07/25 04:33:39;;;;;;;80.90;72.80;;;22.10;1.00;;;;;;5044072;28;20916;-57
2022/07/25 04:36:28;;;;;;;79.40;71.27;;;22.20;1.00;;;;;;5045651;28;20508;-55
2022/07/25 04:38:53;;;;;;;77.27;69.37;;;22.60;1.00;;;;;;5044115;28;20808;-54
2022/07/25 04:41:19;;;;;;;70.90;64.00;;;;;;;;;;5051861;28;20453;-55
2022/07/25 04:43:45;;;;;;;76.33;68.53;;;;;;;;;;5051637;28;20229;-52
2022/07/25 04:46:11;;;;;;;67.83;61.00;;;22.60;1.00;;;;;;5051638;28;20448;-55
2022/07/25 04:48:37;;;;;;;70.40;62.90;;;;;;;;;;5053824;28;20461;-54
2022/07/25 04:51:03;;;;;;;68.57;62.13;;;22.60;1.00;;;;;;5055717;28;20192;-55
2022/07/25 04:53:28;;;;;;;68.70;61.80;;;22.80;1.00;;;;;;5051323;28;20519;-54
2022/07/25 04:55:54;;;;;;;69.50;62.27;;;22.90;1.00;;;;;;5050462;28;20188;-54
2022/07/25 04:58:20;;;;;;;67.43;60.77;;;23.00;1.00;;;;;;5052395;28;20203;-55
2022/07/25 05:00:45;;;;;;;68.27;61.47;;;;;;;;;;5050374;28;20614;-55
2022/07/25 05:03:11;;;;;;;65.07;58.70;;;23.20;1.00;;;;;;5051241;28;20211;-54
2022/07/25 05:05:37;;;;;;;66.97;60.03;;;;;;;;;;5051439;28;20543;-53
2022/07/25 05:08:03;;;;;;;63.73;57.33;;;;;;;;;;5051894;28;20180;-55
2022/07/25 05:10:29;;;;;;;60.57;54.77;;;23.40;1.00;;;;;;5047761;28;20859;-54
2022/07/25 05:12:55;;;;;;;61.37;55.43;;;23.50;1.00;;;;;;5051748;28;20530;-55
2022/07/25 05:15:21;;;;;;;60.23;53.90;;;23.60;1.00;;;;;;5051110;28;20192;-53
2022/07/25 05:17:47;;;;;;;56.70;51.10;;;;;;;;;;5050381;28;20191;-53
2022/07/25 05:20:13;;;;;;;55.13;49.67;;;;;;;;;;5048911;28;21028;-54
2022/07/25 05:22:40;;;;;;;46.63;41.83;;;24.00;1.00;;;;;;5049431;28;20454;-54
2022/07/25 05:25:07;;;;;;;46.80;42.27;;;24.10;1.00;;;;;;5051681;28;20442;-55
2022/07/25 05:27:33;;;;;;;43.37;38.93;;;;;;;;;;5049942;28;20812;-54
2022/07/25 05:29:59;;;;;;;39.17;34.93;;;;;;;;;;5049244;28;20450;-54
2022/07/25 05:32:25;;;;;;;34.03;30.60;;;;;;;;;;5048350;28;20894;-53
2022/07/25 05:34:51;;;;;;;32.63;29.33;;;;;;;;;;5048297;28;20590;-54
2022/07/25 05:37:17;;;;;;;31.30;27.13;;;;;;;;;;5048320;28;20534;-53
2022/07/25 05:39:49;;;;;;;28.83;25.87;;;24.70;1.00;;;;;;5049624;28;20544;-53
2022/07/25 05:42:15;;;;;;;28.43;25.70;;;24.80;1.00;;;;;;5066564;28;20486;-52
2022/07/25 05:44:41;;;;;;;27.87;25.03;;;;;;;;;;5050872;28;20508;-54
2022/07/25 05:47:10;;;;;;;27.50;24.90;;;24.90;1.00;;;;;;5051295;28;20219;-55
2022/07/25 05:49:36;;;;;;;28.23;25.70;;;25.00;1.00;;;;;;5050106;28;20496;-53
2022/07/25 05:52:03;;;;;;;26.80;24.33;;;25.30;1.00;;;;;;5048918;28;20476;-53
2022/07/25 05:54:29;;;;;;;27.43;23.47;;;;;;;;;;5050438;28;20451;-53
2022/07/25 05:56:56;;;;;;;27.60;24.70;;;;;;;;;;5050543;28;20455;-55
2022/07/25 05:59:22;;;;;;;27.20;24.40;;;;;;;;;;5049620;28;20500;-54
2022/07/25 06:01:47;;;;;;;26.60;24.30;;;25.60;1.00;;;;;;5048402;28;20929;-53
2022/07/25 06:04:13;;;;;;;26.20;23.70;;;;;;;;;;5050281;28;20490;-53
2022/07/25 06:06:39;;;;;;;26.73;23.97;;;25.90;1.00;;;;;;5049042;28;20207;-54
2022/07/25 06:09:05;;;;;;;26.10;23.30;;;26.00;1.00;;;;;;5051016;28;20438;-53
2022/07/25 06:11:31;;;;;;;27.10;24.40;;;;;;;;;;5047519;28;20184;-53
2022/07/25 06:13:57;;;;;;;26.37;23.73;;;26.20;1.00;;;;;;5050270;28;20467;-53
2022/07/25 06:16:23;;;;;;;25.53;22.93;;;;;;;;;;5050547;28;20971;-55
2022/07/25 06:18:48;;;;;;;29.47;26.50;;;26.50;1.00;;;;;;5049939;28;20473;-54
2022/07/25 06:21:14;;;;;;;25.37;22.70;;;;;;;;;;5050668;28;20636;-54
2022/07/25 06:23:40;;;;;;;23.93;21.73;;;;;;;;;;5049604;28;20226;-53
2022/07/25 06:26:12;;;;;;;24.60;22.40;;;26.70;1.00;;;;;;5049407;28;20450;-54
2022/07/25 06:28:38;;;;;;;24.13;21.40;;;26.80;1.00;;;;;;5048906;28;20614;-53
2022/07/25 06:31:11;;;;;;;25.73;23.53;;;26.90;1.00;;;;;;5050974;28;20533;-53
2022/07/25 06:33:37;;;;;;;23.57;21.43;;;27.00;1.00;;;;;;5049330;28;20685;-54
2022/07/25 06:36:11;;;;;;;25.67;23.00;;;27.10;1.00;;;;;;5049335;28;20490;-52
2022/07/25 06:38:36;;;;;;;24.60;22.00;;;27.10;1.00;;;;;;5050239;28;20184;-53
2022/07/25 06:41:02;;;;;;;24.13;21.93;;;27.20;1.00;;;;;;5049318;28;20951;-52
2022/07/25 06:43:28;;;;;;;23.23;21.13;;;;;;;;;;5049573;28;20290;-54
2022/07/25 06:45:54;;;;;;;25.03;22.63;;;;;;;;;;5050182;28;20187;-54
2022/07/25 06:48:23;;;;;;;23.83;21.30;;;;;;;;;;5048095;28;20756;-55
2022/07/25 06:50:49;;;;;;;23.30;21.00;;;;;;;;;;5055525;28;20476;-55
2022/07/25 06:53:15;;;;;;;23.83;21.63;;;;;;;;;;5067663;28;20540;-54
2022/07/25 06:55:41;;;;;;;23.40;21.20;;;;;;;;;;5050879;28;20967;-53
2022/07/25 06:58:07;;;;;;;21.63;19.47;;;;;;;;;;5048052;28;20523;-55
2022/07/25 07:00:33;;;;;;;21.33;18.40;;;;;;;;;;5049210;28;20799;-54
2022/07/25 07:03:01;;;;;;;19.20;17.30;;;28.30;1.00;;;;;;5055367;28;20481;-54
2022/07/25 07:05:29;;;;;;;19.43;17.67;;;28.30;1.00;;;;;;5052986;28;20447;-56
2022/07/25 07:07:55;;;;;;;22.27;17.20;;;28.40;1.00;;;;;;5048251;28;20855;-54
2022/07/25 07:10:21;;;;;;;16.73;15.07;;;28.50;1.00;;;;;;5050119;28;20798;-54
2022/07/25 07:12:47;;;;;;;18.13;16.20;;;;;;;;;;5047681;28;20528;-53
2022/07/25 07:15:13;;;;;;;17.17;15.57;;;28.70;1.00;;;;;;5048050;28;20176;-55
2022/07/25 07:17:39;;;;;;;13.60;12.50;;;;;;;;;;5048310;28;20993;-54
2022/07/25 07:20:08;;;;;;;20.30;14.37;;;28.90;1.00;;;;;;5047402;28;20453;-54
2022/07/25 07:22:45;;;;;;;13.83;12.53;;;28.50;1.00;;;;;;5048809;28;20473;-53
2022/07/25 07:25:16;;;;;;;13.87;12.57;;;29.10;1.00;;;;;;5047062;28;20479;-54
2022/07/25 07:27:43;;;;;;;13.20;11.90;;;29.20;1.00;;;;;;5045696;28;21042;-54
2022/07/25 07:30:10;;;;;;;11.73;10.63;;;29.50;1.00;;;;;;5048398;28;20446;-54
2022/07/25 07:32:35;;;;;;;10.70;9.70;;;29.50;1.00;;;;;;5046670;28;20481;-53
2022/07/25 07:35:01;;;;;;;13.70;10.13;;;;;;;;;;5046839;28;20442;-54
2022/07/25 07:37:27;;;;;;;9.63;8.40;;;;;;;;;;5049064;28;20568;-54
2022/07/25 07:39:53;;;;;;;11.23;9.90;;;29.90;1.00;;;;;;5047738;28;20512;-54
2022/07/25 07:42:18;;;;;;;9.93;9.00;;;30.00;1.00;;;;;;5047685;28;20966;-54
2022/07/25 07:44:44;;;;;;;9.70;8.87;;;;;;;;;;5049226;28;20234;-55
2022/07/25 07:47:10;;;;;;;9.83;8.77;;;30.10;1.00;;;;;;5047886;28;20180;-53
2022/07/25 07:49:35;;;;;;;9.23;8.43;;;30.30;1.00;;;;;;5049617;28;20457;-54
2022/07/25 07:52:01;;;;;;;9.27;8.30;;;;;;;;;;5048987;28;20203;-55
2022/07/25 07:57:12;;;;;;;8.80;8.00;;;;;;;;;;5049706;28;20529;-54
2022/07/25 07:59:38;;;;;;;8.53;7.63;;;;;;;;;;5049421;28;20433;-54
2022/07/25 08:02:03;;;;;;;7.83;7.13;;;30.70;1.00;;;;;;5049199;28;20438;-56
2022/07/25 08:04:29;;;;;;;7.00;6.40;;;;;;;;;;5049710;28;20471;-54
2022/07/25 08:06:55;;;;;;;7.60;6.90;;;30.70;1.00;;;;;;5049479;28;20295;-53
2022/07/25 08:09:21;;;;;;;9.23;8.40;;;30.90;1.00;;;;;;5048731;28;20443;-54
2022/07/25 08:11:47;;;;;;;8.30;7.50;;;;;;;;;;5049656;28;20538;-55
2022/07/25 08:14:12;;;;;;;8.50;6.80;;;31.30;1.00;;;;;;5061199;28;20471;-54
2022/07/25 08:16:38;;;;;;;27.33;8.37;;;;;;;;;;5069330;28;20451;-53
2022/07/25 08:19:04;;;;;;;8.37;6.80;;;;;;;;;;5053712;28;20605;-55
2022/07/25 08:21:30;;;;;;;7.73;7.13;;;;;;;;;;5058588;28;20539;-55
2022/07/25 08:23:56;;;;;;;7.63;6.93;;;31.80;1.00;;;;;;5056214;28;20466;-54
2022/07/25 08:26:26;;;;;;;7.30;6.60;;;31.80;1.00;;;;;;5051849;28;20450;-54
2022/07/25 08:28:52;;;;;;;7.87;7.27;;;31.80;1.00;;;;;;5053688;28;20185;-55
2022/07/25 08:31:18;;;;;;;6.90;6.40;;;31.90;1.00;;;;;;5053323;28;20780;-55
2022/07/25 08:33:44;;;;;;;7.07;6.53;;;;;;;;;;5051519;28;20475;-53
2022/07/25 08:36:28;;;;;;;8.00;7.30;;;32.10;1.00;;;;;;5052051;28;20930;-55
2022/07/25 08:38:54;;;;;;;8.20;7.40;;;32.30;1.00;;;;;;5052951;28;20437;-55
2022/07/25 08:41:23;;;;;;;8.00;7.13;;;32.50;1.00;;;;;;5055269;28;20604;-55
2022/07/25 08:43:49;;;;;;;9.37;7.20;;;32.80;1.00;;;;;;5052290;28;20257;-53
2022/07/25 08:46:30;;;;;;;8.43;7.43;;;32.90;1.00;;;;;;5051921;28;20465;-53
2022/07/25 08:48:56;;;;;;;7.50;6.80;;;;;;;;;;5066920;28;20915;-54
2022/07/25 08:51:25;;;;;;;7.80;6.83;;;33.10;1.00;;;;;;5073048;28;20445;-53
2022/07/25 08:53:51;;;;;;;7.43;6.70;;;33.00;1.00;;;;;;5072619;28;20445;-55
2022/07/25 08:56:25;;;;;;;7.40;6.70;;;32.90;1.00;;;;;;5057171;28;20445;-54
2022/07/25 08:58:51;;;;;;;7.10;6.60;;;;;;;;;;5053121;28;20441;-53
2022/07/25 09:01:23;;;;;;;6.83;6.23;;;;;;;;;;5068335;28;20468;-52
2022/07/25 09:03:49;;;;;;;10.33;8.00;;;;;;;;;;5071282;28;20908;-55
2022/07/25 09:06:34;;;;;;;7.10;6.40;;;33.10;1.00;;;;;;5052572;28;20482;-53
2022/07/25 09:09:00;;;;;;;6.73;6.23;;;33.40;1.00;;;;;;5053069;28;20434;-55
2022/07/25 09:11:36;;;;;;;7.33;6.63;;;33.40;1.00;;;;;;5053496;28;20449;-54
2022/07/25 09:14:05;;;;;;;8.27;7.57;;;33.50;1.00;;;;;;5052997;28;20438;-53
2022/07/25 09:16:36;;;;;;;8.73;8.03;;;33.50;1.00;;;;;;5053174;28;20657;-53
2022/07/25 09:19:10;;;;;;;7.80;7.03;;;33.50;1.00;;;;;;5052917;28;20458;-54
2022/07/25 09:21:38;;;;;;;7.07;6.57;;;33.70;1.00;;;;;;5052628;28;20463;-55
2022/07/25 09:24:09;;;;;;;8.30;7.20;;;33.90;1.00;;;;;;5052729;28;20466;-54
2022/07/25 09:26:49;;;;;;;7.87;6.73;;;33.90;1.00;;;;;;5052645;28;20434;-54
2022/07/25 09:29:22;;;;;;;7.60;7.00;;;34.10;1.00;;;;;;5052243;28;20446;-52
2022/07/25 09:31:48;;;;;;;7.27;6.57;;;34.20;1.00;;;;;;5050982;28;20434;-53
2022/07/25 09:34:33;;;;;;;8.60;7.27;;;34.20;1.00;;;;;;5052404;28;20450;-54
2022/07/25 09:36:59;;;;;;;7.70;7.20;;;34.20;1.00;;;;;;5053839;28;20436;-55
2022/07/25 09:39:44;;;;;;;11.93;7.90;;;34.30;1.00;;;;;;5071598;28;20511;-53
2022/07/25 09:42:22;;;;;;;6.67;6.17;;;34.50;1.00;;;;;;5051813;28;20446;-54
2022/07/25 09:45:11;;;;;;;8.30;7.40;;;34.30;1.00;;;;;;5052037;28;20505;-54
2022/07/25 09:47:50;;;;;;;7.40;6.80;;;34.10;1.00;;;;;;5051288;28;20533;-55
2022/07/25 09:50:17;;;;;;;7.47;6.87;;;34.20;1.00;;;;;;5063990;28;20437;-52
2022/07/25 09:52:44;;;;;;;6.83;6.30;;;34.30;1.00;;;;;;5072088;28;20434;-54
2022/07/25 09:55:12;;;;;;;7.50;6.90;;;;;;;;;;5059287;28;20443;-54
2022/07/25 09:57:39;;;;;;;7.07;6.60;;;34.10;1.00;;;;;;5061820;28;20575;-55
2022/07/25 10:00:07;;;;;;;7.50;6.63;;;34.10;1.00;;;;;;5071615;28;20764;-54
2022/07/25 10:02:47;;;;;;;10.17;6.60;;;34.10;1.00;;;;;;5071624;28;20513;-54
2022/07/25 10:05:19;;;;;;;9.67;6.73;;;34.00;1.00;;;;;;5071582;28;20445;-54
2022/07/25 10:07:48;;;;;;;9.00;6.90;;;34.10;1.00;;;;;;5067440;28;20525;-52
2022/07/25 10:10:24;;;;;;;8.67;7.50;;;34.40;1.00;;;;;;5071428;28;20858;-55
2022/07/25 10:13:10;;;;;;;6.93;6.43;;;34.40;1.00;;;;;;5071133;28;20825;-54
2022/07/25 10:15:47;;;;;;;7.23;6.60;;;34.20;1.00;;;;;;5051683;28;20963;-54
2022/07/25 10:18:14;;;;;;;7.87;7.17;;;34.30;1.00;;;;;;5051414;28;20430;-53
2022/07/25 10:20:41;;;;;;;7.23;6.53;;;34.40;1.00;;;;;;5051545;28;20457;-53
2022/07/25 10:23:21;;;;;;;7.37;6.77;;;34.40;1.00;;;;;;5059524;28;20510;-56
2022/07/25 10:25:47;;;;;;;7.40;6.80;;;;;;;;;;5071178;28;20429;-54
2022/07/25 10:28:18;;;;;;;7.53;6.83;;;34.50;1.00;;;;;;5071057;28;20433;-55
2022/07/25 10:30:44;;;;;;;8.80;6.50;;;;;;;;;;5071639;28;20441;-54
2022/07/25 10:33:20;;;;;;;7.53;6.63;;;34.50;1.00;;;;;;5071111;28;20873;-53
2022/07/25 10:35:46;;;;;;;7.00;6.50;;;34.30;1.00;;;;;;5071181;28;20853;-52
2022/07/25 10:38:12;;;;;;;7.47;6.87;;;;;;;;;;5061733;28;20481;-54
2022/07/25 10:40:40;;;;;;;7.90;7.17;;;34.30;1.00;;;;;;5051595;28;20434;-54
2022/07/25 10:43:19;;;;;;;7.10;6.40;;;34.30;1.00;;;;;;5051178;28;21065;-54
2022/07/25 10:45:53;;;;;;;6.53;6.03;;;34.20;1.00;;;;;;5047756;28;20442;-54
2022/07/25 10:48:25;;;;;;;7.03;6.53;;;34.20;1.00;;;;;;5051063;28;20529;-53
2022/07/25 10:50:58;;;;;;;7.40;6.80;;;34.30;1.00;;;;;;5051196;28;20505;-55
2022/07/25 10:53:44;;;;;;;7.30;6.70;;;34.50;1.00;;;;;;5050791;28;20849;-54
2022/07/25 10:56:29;;;;;;;6.97;6.27;;;34.50;1.00;;;;;;5050878;28;20446;-53
2022/07/25 10:58:57;;;;;;;7.90;7.30;;;34.50;1.00;;;;;;5050991;28;20434;-55
2022/07/25 11:01:36;;;;;;;8.20;7.60;;;34.60;1.00;;;;;;5050471;28;20564;-55
2022/07/25 11:04:05;;;;;;;8.00;7.30;;;34.60;1.00;;;;;;5050686;28;20548;-57
2022/07/25 11:06:38;;;;;;;7.20;6.60;;;34.60;1.00;;;;;;5050274;28;20514;-55
2022/07/25 11:09:24;;;;;;;7.63;6.97;;;34.50;1.00;;;;;;5050237;28;20451;-54
2022/07/25 11:11:53;;;;;;;7.30;6.57;;;34.50;1.00;;;;;;5070194;28;20579;-56
2022/07/25 11:14:23;;;;;;;7.30;6.70;;;34.70;1.00;;;;;;5070356;28;20440;-55
2022/07/25 11:16:52;;;;;;;8.03;7.37;;;34.70;1.00;;;;;;5070196;28;20441;-52
2022/07/25 11:19:21;;;;;;;8.67;6.90;;;34.60;1.00;;;;;;5070318;28;20444;-55
2022/07/25 11:21:49;;;;;;;7.27;6.57;;;34.70;1.00;;;;;;5070151;28;20886;-55
2022/07/25 11:24:14;;;;;;;7.13;6.50;;;34.70;1.00;;;;;;5069731;28;20460;-54
2022/07/25 11:26:44;;;;;;;7.57;7.00;;;;;;;;;;5049226;28;20446;-54
2022/07/25 11:29:18;;;;;;;7.37;6.67;;;34.60;1.00;;;;;;5050120;28;20184;-53
2022/07/25 11:31:54;;;;;;;7.63;6.50;;;34.60;1.00;;;;;;5049647;28;21003;-55
2022/07/25 11:34:36;;;;;;;6.73;6.13;;;34.50;1.00;;;;;;5068275;28;20452;-53
2022/07/25 11:37:06;;;;;;;7.30;6.60;;;34.50;1.00;;;;;;5049643;28;20492;-54
2022/07/25 11:39:35;;;;;;;7.07;6.37;;;34.60;1.00;;;;;;5049789;28;20474;-52
2022/07/25 11:42:06;;;;;;;7.33;6.57;;;34.70;1.00;;;;;;5049581;28;20445;-55
2022/07/25 11:44:34;;;;;;;7.00;6.50;;;34.70;1.00;;;;;;5048259;28;20539;-54
2022/07/25 11:47:00;;;;;;;7.10;6.50;;;34.80;1.00;;;;;;5049617;28;20434;-54
2022/07/25 11:49:27;;;;;;;7.90;6.67;;;;;;;;;;5052984;28;20920;-54
2022/07/25 11:52:30;;;;;;;8.10;7.20;;;35.10;1.00;;;;;;5049552;28;20438;-54
2022/07/25 11:54:57;;;;;;;6.50;6.00;;;35.20;1.00;;;;;;5026754;28;20494;-55
2022/07/25 11:57:25;;;;;;;6.70;6.07;;;35.10;1.00;;;;;;5061502;28;20446;-52
2022/07/25 11:59:51;;;;;;;7.30;6.70;;;35.10;1.00;;;;;;5069404;28;20561;-55
2022/07/25 12:02:31;;;;;;;7.20;6.60;;;35.10;1.00;;;;;;5069863;28;20441;-54
2022/07/25 12:04:59;;;;;;;6.67;6.07;;;35.20;1.00;;;;;;5065233;28;21025;-54
2022/07/25 12:07:45;;;;;;;7.47;6.63;;;35.10;1.00;;;;;;5049625;28;21144;-54
2022/07/25 12:10:34;;;;;;;7.90;7.30;;;35.10;1.00;;;;;;5048037;28;20513;-56
2022/07/25 12:13:02;;;;;;;7.63;7.00;;;;;;;;;;5046035;28;20455;-55
2022/07/25 12:15:31;;;;;;;8.30;7.70;;;35.00;1.00;;;;;;5049610;28;20454;-53
2022/07/25 12:17:57;;;;;;;6.93;6.40;;;35.00;1.00;;;;;;5049335;28;20438;-55
2022/07/25 12:20:25;;;;;;;6.90;6.40;;;35.10;1.00;;;;;;5049044;28;20500;-54
2022/07/25 12:22:53;;;;;;;7.57;7.00;;;35.10;1.00;;;;;;5049186;28;20449;-53
2022/07/25 12:25:20;;;;;;;6.70;6.10;;;;;;;;;;5048837;28;20442;-54
2022/07/25 12:27:46;;;;;;;6.60;6.10;;;;;;;;;;5049383;28;20919;-53
2022/07/25 12:30:12;;;;;;;7.03;6.43;;;;;;;;;;5049218;28;20447;-56
2022/07/25 12:32:38;;;;;;;7.20;6.03;;;;;;;;;;5049012;28;20466;-53
2022/07/25 12:35:06;;;;;;;6.87;6.27;;;34.90;1.00;;;;;;5048908;28;20524;-53
2022/07/25 12:37:32;;;;;;;7.80;6.30;;;;;;;;;;5049005;28;21117;-54
2022/07/25 12:39:58;;;;;;;7.13;6.43;;;34.90;1.00;;;;;;5048914;28;20488;-54
2022/07/25 12:42:24;;;;;;;7.10;6.60;;;34.90;1.00;;;;;;5049084;28;20819;-53
2022/07/25 12:44:50;;;;;;;7.27;5.90;;;34.60;1.00;;;;;;5049236;28;20632;-54
2022/07/25 12:47:16;;;;;;;6.40;5.90;;;34.60;1.00;;;;;;5049115;28;20431;-54
2022/07/25 12:49:42;;;;;;;6.63;6.03;;;34.60;1.00;;;;;;5049323;28;20434;-55
2022/07/25 12:52:08;;;;;;;7.27;6.70;;;;;;;;;;5049426;28;20641;-54
2022/07/25 12:54:34;;;;;;;8.80;6.53;;;;;;;;;;5048953;28;20176;-55
2022/07/25 12:57:00;;;;;;;7.50;6.90;;;;;;;;;;5055270;28;20914;-54
2022/07/25 12:59:26;;;;;;;7.00;6.40;;;35.00;1.00;;;;;;5069153;28;20449;-55
2022/07/25 13:01:51;;;;;;;7.63;6.90;;;35.30;1.00;;;;;;5058529;28;20446;-54
2022/07/25 13:04:17;;;;;;;8.27;7.47;;;35.20;1.00;;;;;;5052940;28;20469;-55
2022/07/25 13:06:43;;;;;;;7.70;6.60;;;35.10;1.00;;;;;;5052380;28;20234;-54
2022/07/25 13:09:08;;;;;;;8.00;7.00;;;35.10;1.00;;;;;;5052617;28;20725;-53
2022/07/25 13:11:34;;;;;;;8.10;7.33;;;;;;;;;;5052200;28;20183;-55
2022/07/25 13:14:00;;;;;;;8.13;6.67;;;35.00;1.00;;;;;;5052683;28;20212;-54
2022/07/25 13:16:33;;;;;;;10.27;7.40;;;35.10;1.00;;;;;;5052155;28;20982;-54
2022/07/25 13:18:58;;;;;;;7.73;7.07;;;35.20;1.00;;;;;;5052510;28;20624;-54
2022/07/25 13:21:24;;;;;;;7.30;6.63;;;;;;;;;;5051951;28;20442;-55
2022/07/25 13:23:50;;;;;;;6.67;6.17;;;35.30;1.00;;;;;;5052190;28;20256;-53
2022/07/25 13:26:28;;;;;;;7.93;7.23;;;34.90;1.00;;;;;;5052569;28;20513;-54
2022/07/25 13:28:54;;;;;;;8.23;7.43;;;35.40;1.00;;;;;;5051759;28;20184;-54
2022/07/25 13:31:34;;;;;;;7.53;6.97;;;35.30;1.00;;;;;;5051055;28;20785;-54